Royalton, Pennsylvania
Current Conditions -  °F | °C
As of 5:56 PM on Sunday 21 Dec 2014 (Local Time) from KMDT Reporting Station
Broken Clouds Broken Clouds  
Wind Chill: 25°   Ceiling: 20000
Heat Index: 30°   Visibility: 10mi
Dew Point: 21°   Wind: 5mph
Humidity: 69%   Direction: 30°NNE
Pressure: 30.32"   Gusts: NA
Location:  40.1873°N, 76.6948°W
Report Text: KMDT 212256Z 03004KT 10SM SCT029 BKN200 M01/M06 A3032 RMK AO2 SLP270 T10111061 $
Loading
Personal Weather Stations






























Interactive Weather Map New forecast layout! Learn more

10-Day Weather Forecast

Advertisements
Track Severe Weather on mobile